Time;durP1;ratioP1;P1;durP2;ratioP2;P2;SDS_P1;SDS_P2;PMS_P1;PMS_P2;Temp;Humidity;BMP_temperature;BMP_pressure;BME280_temperature;BME280_humidity;BME280_pressure;Samples;Min_cycle;Max_cycle;Signal;HPM_P1;HPM_P2
2022/08/24 00:00:23;;;;;;;3.00;2.60;;;23.90;53.00;;;;;;5041438;28;20230;-78
2022/08/24 00:02:50;;;;;;;2.67;2.47;;;23.80;53.50;;;;;;5057876;28;20202;-77
2022/08/24 00:05:19;;;;;;;2.60;2.40;;;23.80;53.00;;;;;;5058072;28;20234;-78
2022/08/24 00:07:48;;;;;;;3.17;2.80;;;23.80;53.00;;;;;;5057978;28;20200;-77
2022/08/24 00:10:15;;;;;;;2.70;2.50;;;23.80;53.10;;;;;;5041109;28;20646;-77
2022/08/24 00:12:43;;;;;;;2.70;2.50;;;23.80;53.10;;;;;;5057884;28;20269;-77
2022/08/24 00:15:11;;;;;;;2.80;2.60;;;23.80;53.10;;;;;;5057412;28;20195;-78
2022/08/24 00:17:39;;;;;;;2.97;2.78;;;23.80;53.20;;;;;;5057630;28;20261;-78
2022/08/24 00:20:08;;;;;;;2.90;2.70;;;23.80;53.20;;;;;;5057180;28;20223;-78
2022/08/24 00:22:34;;;;;;;2.75;2.55;;;23.80;53.30;;;;;;5057625;28;20191;-77
2022/08/24 00:25:01;;;;;;;2.85;2.65;;;23.70;53.10;;;;;;5040807;28;20196;-77
2022/08/24 00:27:28;;;;;;;2.80;2.60;;;23.80;53.30;;;;;;5057214;28;20208;-78
2022/08/24 00:29:57;;;;;;;2.85;2.65;;;23.80;53.30;;;;;;5057293;28;20199;-77
2022/08/24 00:32:24;;;;;;;2.67;2.47;;;23.70;53.10;;;;;;5056609;28;20215;-78
2022/08/24 00:34:51;;;;;;;2.85;2.65;;;23.70;53.10;;;;;;5056381;28;20191;-78
2022/08/24 00:37:18;;;;;;;3.17;2.35;;;23.70;53.10;;;;;;5039598;28;20195;-78
2022/08/24 00:39:45;;;;;;;3.05;2.75;;;23.70;53.10;;;;;;5056031;28;20195;-77
2022/08/24 00:42:12;;;;;;;2.80;2.60;;;23.70;53.10;;;;;;5039364;28;20665;-78
2022/08/24 00:44:39;;;;;;;2.97;2.67;;;23.70;53.10;;;;;;5039795;28;20234;-78
2022/08/24 00:47:13;;;;;;;2.72;2.53;;;23.70;53.20;;;;;;5055968;28;20235;-78
2022/08/24 00:49:42;;;;;;;2.63;2.42;;;23.70;53.20;;;;;;5055545;28;20191;-78
2022/08/24 00:52:11;;;;;;;3.67;2.83;;;23.70;53.20;;;;;;5055670;28;20238;-77
2022/08/24 00:54:40;;;;;;;2.92;2.72;;;23.70;53.20;;;;;;5055812;28;20203;-77
2022/08/24 00:57:09;;;;;;;2.70;2.50;;;23.70;53.30;;;;;;5055650;28;20195;-78
2022/08/24 00:59:38;;;;;;;2.50;2.30;;;23.70;53.30;;;;;;5055436;28;20286;-77
2022/08/24 01:02:10;;;;;;;3.25;2.95;;;23.70;53.30;;;;;;5056645;28;20341;-77
2022/08/24 01:04:41;;;;;;;2.75;2.40;;;23.60;53.30;;;;;;5055212;28;20191;-78
2022/08/24 01:07:08;;;;;;;3.15;2.50;;;23.70;53.40;;;;;;5056200;28;20195;-77
2022/08/24 01:09:35;;;;;;;2.85;2.65;;;23.60;53.30;;;;;;5039003;28;20202;-78
2022/08/24 01:12:02;;;;;;;2.97;2.67;;;23.60;53.30;;;;;;5038595;28;20649;-76
2022/08/24 01:14:29;;;;;;;3.03;2.70;;;23.60;53.40;;;;;;5055447;28;20654;-77
2022/08/24 01:19:43;;;;;;;2.70;2.50;;;23.60;53.40;;;;;;5056217;28;20191;-79
2022/08/24 01:22:17;;;;;;;2.75;2.55;;;23.60;53.50;;;;;;5039963;28;20199;-77
2022/08/24 01:24:46;;;;;;;2.67;2.47;;;23.50;53.40;;;;;;5056917;28;20199;-78
2022/08/24 01:27:13;;;;;;;3.05;2.75;;;23.60;53.50;;;;;;5056610;28;20598;-77
2022/08/24 01:29:41;;;;;;;2.35;2.22;;;23.50;53.50;;;;;;5055791;28;20199;-78
2022/08/24 01:32:09;;;;;;;2.60;2.40;;;23.50;53.50;;;;;;5023404;28;20246;-77
2022/08/24 01:34:36;;;;;;;2.55;2.35;;;23.50;53.60;;;;;;5039533;28;20203;-78
2022/08/24 01:37:04;;;;;;;2.83;2.63;;;23.50;53.50;;;;;;5056115;28;20198;-78
2022/08/24 01:39:32;;;;;;;2.75;2.40;;;23.50;53.70;;;;;;5039646;28;20566;-77
2022/08/24 01:42:00;;;;;;;2.63;2.42;;;23.50;53.80;;;;;;5056301;28;20215;-77
2022/08/24 01:44:28;;;;;;;2.60;2.40;;;23.50;53.60;;;;;;5056899;28;20226;-78
2022/08/24 01:46:56;;;;;;;2.63;2.42;;;23.50;53.70;;;;;;5054807;28;20590;-76
2022/08/24 01:49:25;;;;;;;2.95;2.60;;;23.50;53.70;;;;;;5054500;28;20265;-78
2022/08/24 01:51:53;;;;;;;2.60;2.40;;;23.50;53.70;;;;;;5054519;28;20211;-77
2022/08/24 01:54:21;;;;;;;2.80;2.50;;;23.50;53.70;;;;;;5054405;28;20207;-76
2022/08/24 01:56:48;;;;;;;2.47;2.28;;;23.50;53.70;;;;;;5054387;28;20294;-78
2022/08/24 01:59:16;;;;;;;2.60;2.40;;;23.50;53.70;;;;;;5054344;28;20585;-76
2022/08/24 02:01:45;;;;;;;2.53;2.33;;;23.40;53.70;;;;;;5054840;28;20250;-77
2022/08/24 02:04:13;;;;;;;2.65;2.45;;;23.40;53.70;;;;;;5054643;28;20674;-77
2022/08/24 02:06:43;;;;;;;2.90;2.70;;;23.40;53.70;;;;;;5054356;28;20213;-78
2022/08/24 02:09:10;;;;;;;2.50;2.40;;;23.40;53.80;;;;;;5054503;28;20202;-79
2022/08/24 02:11:38;;;;;;;2.70;2.50;;;23.40;53.80;;;;;;5037295;28;20246;-77
2022/08/24 02:14:05;;;;;;;2.90;2.70;;;23.40;53.80;;;;;;5055322;28;20237;-76
2022/08/24 02:16:34;;;;;;;2.90;2.70;;;23.40;53.80;;;;;;5020762;28;20273;-78
2022/08/24 02:19:01;;;;;;;2.80;2.60;;;23.40;53.80;;;;;;5053859;28;20195;-78
2022/08/24 02:21:28;;;;;;;3.83;2.70;;;23.40;53.80;;;;;;5053888;28;20219;-77
2022/08/24 02:23:55;;;;;;;2.83;2.63;;;23.40;53.90;;;;;;5054069;28;20195;-78
2022/08/24 02:26:22;;;;;;;2.72;2.50;;;23.30;53.80;;;;;;5037344;28;20198;-77
2022/08/24 02:28:49;;;;;;;2.88;2.67;;;23.30;53.90;;;;;;5053946;28;20688;-77
2022/08/24 02:31:17;;;;;;;2.63;2.42;;;23.40;53.90;;;;;;5037062;28;20220;-78
2022/08/24 02:33:46;;;;;;;2.90;2.70;;;23.30;53.90;;;;;;5037088;28;20219;-77
2022/08/24 02:36:14;;;;;;;2.78;2.58;;;23.30;53.90;;;;;;5037490;28;20199;-78
2022/08/24 02:38:41;;;;;;;2.72;2.53;;;23.30;54.50;;;;;;5021608;28;20195;-78
2022/08/24 02:41:14;;;;;;;2.60;2.40;;;23.30;53.90;;;;;;5054611;28;20654;-78
2022/08/24 02:43:41;;;;;;;2.58;2.38;;;23.30;54.00;;;;;;5054607;28;20198;-78
2022/08/24 02:46:09;;;;;;;3.30;3.00;;;23.30;54.00;;;;;;5054573;28;20233;-77
2022/08/24 02:48:36;;;;;;;2.72;2.53;;;23.30;54.00;;;;;;5054090;28;20672;-78
2022/08/24 02:51:05;;;;;;;2.78;2.58;;;23.30;54.00;;;;;;5037764;28;20677;-78
2022/08/24 02:53:32;;;;;;;5.80;2.78;;;23.30;54.00;;;;;;5053614;28;20265;-78
2022/08/24 02:56:00;;;;;;;2.70;2.50;;;23.30;54.00;;;;;;5054243;28;20195;-78
2022/08/24 02:58:27;;;;;;;2.90;2.70;;;23.20;54.00;;;;;;5053670;28;20238;-77
2022/08/24 03:00:54;;;;;;;2.58;2.38;;;23.20;54.00;;;;;;5037009;28;20257;-77
2022/08/24 03:03:21;;;;;;;2.72;2.53;;;23.20;54.00;;;;;;5053619;28;20646;-78
2022/08/24 03:05:49;;;;;;;2.67;2.47;;;23.20;54.00;;;;;;5053336;28;20202;-76
2022/08/24 03:08:17;;;;;;;2.90;2.65;;;23.20;54.00;;;;;;5053354;28;20199;-76
2022/08/24 03:10:44;;;;;;;2.85;2.65;;;23.20;54.10;;;;;;5053308;28;20764;-76
2022/08/24 03:13:12;;;;;;;2.88;2.60;;;23.20;54.10;;;;;;5053578;28;20243;-78
2022/08/24 03:15:40;;;;;;;2.97;2.78;;;23.20;54.00;;;;;;5037103;28;20210;-77
2022/08/24 03:18:06;;;;;;;2.78;2.58;;;23.20;54.00;;;;;;5036572;28;20214;-77
2022/08/24 03:20:33;;;;;;;2.90;2.70;;;23.20;54.00;;;;;;5054728;28;20590;-75
2022/08/24 03:23:00;;;;;;;2.72;2.53;;;23.20;54.00;;;;;;5038672;28;20218;-76
2022/08/24 03:25:29;;;;;;;3.03;2.72;;;23.20;53.90;;;;;;5053569;28;20591;-78
2022/08/24 03:27:56;;;;;;;2.92;2.53;;;23.30;53.80;;;;;;5036925;28;20199;-78
2022/08/24 03:30:23;;;;;;;3.25;2.50;;;23.30;54.30;;;;;;5053354;28;20697;-76
2022/08/24 03:32:50;;;;;;;2.60;2.40;;;23.30;53.60;;;;;;5054003;28;20215;-77
2022/08/24 03:35:18;;;;;;;2.83;2.63;;;23.40;53.60;;;;;;5053227;28;20195;-78
2022/08/24 03:37:45;;;;;;;3.00;2.70;;;23.40;53.40;;;;;;5053033;28;20306;-76
2022/08/24 03:40:12;;;;;;;2.80;2.60;;;23.50;53.30;;;;;;5036466;28;20215;-76
2022/08/24 03:42:41;;;;;;;2.72;2.53;;;23.50;53.20;;;;;;5053324;28;20717;-78
2022/08/24 03:45:09;;;;;;;3.08;2.80;;;23.50;53.10;;;;;;5036867;28;20206;-77
2022/08/24 03:47:36;;;;;;;2.63;2.42;;;23.50;53.00;;;;;;5053119;28;20294;-77
2022/08/24 03:50:04;;;;;;;2.92;2.70;;;23.60;53.10;;;;;;5052508;28;20215;-76
2022/08/24 03:52:31;;;;;;;2.92;2.72;;;23.60;53.10;;;;;;5052798;28;20222;-76
2022/08/24 03:54:58;;;;;;;2.70;2.50;;;23.60;53.10;;;;;;5052451;28;20198;-76
2022/08/24 03:57:26;;;;;;;2.90;2.70;;;23.60;52.90;;;;;;5052338;28;20207;-76
2022/08/24 04:00:16;;;;;;;3.72;2.95;;;23.70;52.90;;;;;;5053731;28;20696;-77
2022/08/24 04:02:52;;;;;;;2.80;2.60;;;23.70;53.00;;;;;;5053415;28;20218;-77
2022/08/24 04:05:22;;;;;;;2.65;2.45;;;23.70;52.80;;;;;;5052480;28;20249;-77
2022/08/24 04:07:48;;;;;;;3.00;2.80;;;23.70;52.70;;;;;;5052410;28;20200;-76
2022/08/24 04:10:16;;;;;;;3.22;2.92;;;23.70;52.70;;;;;;5052252;28;20223;-78
2022/08/24 04:12:44;;;;;;;3.00;2.70;;;23.70;52.70;;;;;;5053252;28;20217;-76
2022/08/24 04:15:12;;;;;;;2.75;2.55;;;23.70;52.70;;;;;;5053049;28;20199;-78
2022/08/24 04:17:41;;;;;;;3.78;3.08;;;23.70;52.70;;;;;;5052903;28;20203;-76
2022/08/24 04:20:09;;;;;;;3.30;3.00;;;23.70;52.70;;;;;;5052939;28;20211;-77
2022/08/24 04:22:39;;;;;;;2.92;2.72;;;23.70;52.70;;;;;;5053163;28;20215;-77
2022/08/24 04:25:07;;;;;;;2.70;2.50;;;23.70;52.70;;;;;;5036781;28;20644;-78
2022/08/24 04:27:35;;;;;;;3.58;2.80;;;23.60;52.70;;;;;;5052318;28;20196;-76
2022/08/24 04:30:02;;;;;;;2.95;2.63;;;23.60;52.70;;;;;;5035585;28;20223;-76
2022/08/24 04:32:35;;;;;;;3.45;2.72;;;23.60;52.80;;;;;;5052459;28;20207;-77
2022/08/24 04:35:05;;;;;;;2.90;2.70;;;23.60;52.80;;;;;;5035914;28;20195;-78
2022/08/24 04:37:33;;;;;;;3.20;2.90;;;23.60;52.80;;;;;;5053934;28;20202;-76
2022/08/24 04:40:00;;;;;;;2.92;2.60;;;23.60;52.90;;;;;;5035816;28;20250;-77
2022/08/24 04:42:33;;;;;;;2.70;2.50;;;23.60;52.90;;;;;;5057064;28;20286;-78
2022/08/24 04:45:00;;;;;;;2.80;2.60;;;23.50;52.80;;;;;;5039374;28;20195;-77
2022/08/24 04:47:27;;;;;;;2.85;2.65;;;23.50;52.80;;;;;;5055907;28;20219;-77
2022/08/24 04:49:54;;;;;;;3.10;2.90;;;23.50;52.80;;;;;;5055879;28;20195;-77
2022/08/24 04:52:23;;;;;;;2.85;2.58;;;23.50;53.00;;;;;;5055850;28;20196;-77
2022/08/24 04:54:49;;;;;;;2.65;2.45;;;23.50;52.90;;;;;;5055753;28;20199;-78
2022/08/24 04:57:22;;;;;;;2.85;2.65;;;23.50;53.60;;;;;;5039622;28;20207;-77
2022/08/24 04:59:49;;;;;;;3.10;2.80;;;23.50;53.00;;;;;;5055483;28;20563;-76
2022/08/24 05:02:17;;;;;;;2.80;2.60;;;23.50;53.00;;;;;;5055656;28;20658;-76
2022/08/24 05:04:47;;;;;;;2.65;2.45;;;23.50;53.00;;;;;;5039127;28;20748;-78
2022/08/24 05:07:14;;;;;;;3.83;3.45;;;23.40;52.20;;;;;;5038808;28;20199;-76
2022/08/24 05:09:44;;;;;;;3.33;3.10;;;23.40;51.20;;;;;;5039008;28;20265;-76
2022/08/24 05:12:11;;;;;;;4.18;3.20;;;23.40;51.50;;;;;;5055588;28;20195;-77
2022/08/24 05:14:44;;;;;;;3.90;3.20;;;23.30;51.40;;;;;;5056029;28;20194;-76
2022/08/24 05:17:11;;;;;;;3.33;3.00;;;23.30;51.60;;;;;;5039111;28;20199;-76
2022/08/24 05:19:38;;;;;;;3.60;3.30;;;23.30;51.40;;;;;;5055896;28;20221;-76
2022/08/24 05:22:05;;;;;;;4.05;3.47;;;23.30;51.40;;;;;;5055116;28;20290;-75
2022/08/24 05:24:32;;;;;;;3.80;3.50;;;23.30;51.40;;;;;;5055496;28;20574;-76
2022/08/24 05:27:01;;;;;;;4.18;3.28;;;23.30;51.40;;;;;;5055342;28;20239;-77
2022/08/24 05:29:32;;;;;;;3.58;3.10;;;23.30;51.50;;;;;;5038449;28;20563;-77
2022/08/24 05:31:59;;;;;;;3.95;3.40;;;23.30;51.60;;;;;;5054904;28;20266;-77
2022/08/24 05:34:26;;;;;;;3.28;3.00;;;23.30;51.50;;;;;;5038381;28;20709;-77
2022/08/24 05:36:53;;;;;;;3.50;3.22;;;23.30;51.50;;;;;;5054969;28;20204;-76
2022/08/24 05:39:33;;;;;;;3.50;3.25;;;23.30;51.50;;;;;;5055894;28;20210;-76
2022/08/24 05:42:07;;;;;;;3.60;3.22;;;23.30;51.60;;;;;;5039403;28;20593;-76
2022/08/24 05:44:37;;;;;;;4.13;3.38;;;23.40;51.50;;;;;;5054791;28;20193;-76
2022/08/24 05:47:05;;;;;;;3.63;3.30;;;23.50;51.40;;;;;;5038070;28;20202;-77
2022/08/24 05:49:31;;;;;;;3.90;3.42;;;23.70;51.20;;;;;;5055048;28;20200;-77
2022/08/24 05:51:58;;;;;;;3.58;3.25;;;23.80;50.80;;;;;;5038246;28;20222;-77
2022/08/24 05:54:26;;;;;;;3.63;3.08;;;24.00;50.60;;;;;;5038580;28;20215;-76
2022/08/24 05:57:05;;;;;;;4.15;3.45;;;24.20;50.50;;;;;;5054578;28;20200;-77
2022/08/24 05:59:54;;;;;;;6.15;3.40;;;24.40;50.30;;;;;;5037745;28;20272;-76
2022/08/24 06:02:22;;;;;;;3.67;3.38;;;24.60;49.80;;;;;;5054431;28;20195;-76
2022/08/24 06:04:49;;;;;;;3.35;2.92;;;24.80;49.60;;;;;;5054365;28;20202;-76
2022/08/24 06:07:17;;;;;;;3.17;2.92;;;25.00;49.30;;;;;;5054792;28;20199;-76
2022/08/24 06:09:52;;;;;;;3.42;3.13;;;25.10;49.70;;;;;;5054421;28;20213;-76
2022/08/24 06:12:20;;;;;;;3.25;2.95;;;25.30;48.70;;;;;;5054207;28;20546;-77
2022/08/24 06:14:47;;;;;;;3.50;3.17;;;25.50;48.40;;;;;;5037519;28;20219;-77
2022/08/24 06:17:20;;;;;;;3.78;3.40;;;25.60;48.20;;;;;;5021701;28;20238;-77
2022/08/24 06:19:47;;;;;;;4.43;3.38;;;25.70;47.60;;;;;;5054142;28;20196;-76
2022/08/24 06:22:14;;;;;;;3.15;2.85;;;25.90;47.60;;;;;;5055500;28;20191;-75
2022/08/24 06:27:27;;;;;;;3.25;2.92;;;26.10;46.80;;;;;;5055382;28;20673;-76
2022/08/24 06:29:56;;;;;;;3.67;2.97;;;26.20;46.70;;;;;;5038759;28;20644;-77
2022/08/24 06:32:45;;;;;;;3.60;3.20;;;26.20;46.60;;;;;;5025141;28;20242;-76
2022/08/24 06:35:22;;;;;;;3.50;3.20;;;26.30;46.60;;;;;;5055490;28;20198;-76
2022/08/24 06:37:50;;;;;;;3.10;2.90;;;26.30;46.30;;;;;;5054754;28;20210;-75
2022/08/24 06:40:19;;;;;;;3.75;2.95;;;26.40;46.20;;;;;;5054388;28;20464;-76
2022/08/24 06:42:45;;;;;;;3.15;2.85;;;26.50;46.10;;;;;;5038079;28;20203;-75
2022/08/24 06:45:35;;;;;;;4.35;2.90;;;26.60;45.90;;;;;;5054298;28;20241;-77
2022/08/24 06:48:04;;;;;;;3.13;2.92;;;26.70;45.70;;;;;;5037807;28;20192;-75
2022/08/24 06:50:31;;;;;;;3.10;2.60;;;26.80;45.60;;;;;;5054515;28;20215;-75
2022/08/24 06:52:59;;;;;;;2.75;2.55;;;26.80;45.30;;;;;;5054566;28;20646;-76
2022/08/24 06:55:26;;;;;;;3.00;2.80;;;26.90;45.20;;;;;;5054594;28;20673;-77
2022/08/24 06:57:53;;;;;;;3.30;3.00;;;27.00;45.00;;;;;;5022402;28;20590;-77
2022/08/24 07:00:20;;;;;;;3.90;2.83;;;27.10;44.90;;;;;;5054644;28;20219;-75
2022/08/24 07:02:48;;;;;;;2.90;2.70;;;27.20;44.70;;;;;;5054365;28;20198;-77
2022/08/24 07:05:17;;;;;;;3.15;2.85;;;27.30;44.50;;;;;;5055034;28;20272;-77
2022/08/24 07:08:03;;;;;;;2.97;2.78;;;27.40;44.40;;;;;;5056158;28;20190;-77
2022/08/24 07:10:30;;;;;;;2.63;2.42;;;27.50;44.20;;;;;;5037486;28;20595;-75
2022/08/24 07:12:58;;;;;;;2.80;2.60;;;27.60;44.00;;;;;;5054320;28;20194;-76
2022/08/24 07:15:25;;;;;;;2.92;2.70;;;27.60;44.40;;;;;;5054687;28;20249;-75
2022/08/24 07:18:08;;;;;;;3.25;2.58;;;27.70;43.60;;;;;;5037002;28;20197;-76
2022/08/24 07:20:40;;;;;;;2.53;2.33;;;27.80;43.50;;;;;;5053714;28;20242;-77
2022/08/24 07:23:13;;;;;;;2.80;2.60;;;27.90;43.20;;;;;;5053012;28;20660;-75
2022/08/24 07:25:40;;;;;;;2.80;2.60;;;28.00;43.00;;;;;;5036630;28;20201;-76
2022/08/24 07:28:08;;;;;;;2.92;2.72;;;28.10;42.80;;;;;;5053865;28;20409;-76
2022/08/24 07:30:35;;;;;;;2.70;2.50;;;28.20;42.60;;;;;;5054566;28;20214;-75
2022/08/24 07:33:02;;;;;;;2.67;2.47;;;28.20;42.50;;;;;;5037795;28;20253;-75
2022/08/24 07:35:31;;;;;;;2.53;2.33;;;28.30;42.40;;;;;;5037894;28;20198;-77
2022/08/24 07:37:59;;;;;;;2.88;2.63;;;28.30;42.30;;;;;;5055869;28;20195;-77
2022/08/24 07:40:27;;;;;;;2.90;2.65;;;28.40;42.10;;;;;;5055042;28;20705;-75
2022/08/24 07:42:55;;;;;;;2.40;2.20;;;28.50;42.00;;;;;;5021583;28;20691;-75
2022/08/24 07:45:22;;;;;;;3.65;2.40;;;28.50;41.90;;;;;;5052847;28;20187;-76
2022/08/24 07:47:51;;;;;;;3.47;2.33;;;28.60;41.90;;;;;;5052926;28;20282;-76
2022/08/24 07:50:36;;;;;;;2.97;2.70;;;28.60;41.80;;;;;;5038094;28;20215;-76
2022/08/24 07:53:04;;;;;;;3.88;2.60;;;28.60;41.70;;;;;;5055363;28;20615;-76
2022/08/24 07:55:33;;;;;;;2.72;2.50;;;28.60;41.70;;;;;;5022442;28;20241;-77
2022/08/24 07:58:00;;;;;;;2.78;2.50;;;28.70;41.70;;;;;;5054230;28;20230;-76
2022/08/24 08:00:27;;;;;;;2.35;2.13;;;28.70;41.60;;;;;;5052439;28;20583;-76
2022/08/24 08:03:01;;;;;;;2.40;2.20;;;28.80;41.60;;;;;;5052585;28;20199;-78
2022/08/24 08:05:29;;;;;;;2.75;2.55;;;28.80;41.40;;;;;;5035916;28;20190;-76
2022/08/24 08:07:56;;;;;;;2.40;2.20;;;28.80;41.40;;;;;;5052406;28;20191;-76
2022/08/24 08:10:29;;;;;;;3.05;2.40;;;28.80;41.30;;;;;;5052369;28;20215;-76
2022/08/24 08:12:57;;;;;;;2.60;2.40;;;28.90;41.30;;;;;;5020161;28;20187;-77
2022/08/24 08:15:25;;;;;;;2.63;2.40;;;28.90;41.20;;;;;;5036719;28;20224;-77
2022/08/24 08:18:02;;;;;;;2.40;2.20;;;28.90;41.20;;;;;;5056477;28;20699;-76
2022/08/24 08:20:30;;;;;;;2.60;2.40;;;28.90;41.20;;;;;;5023931;28;20215;-76
2022/08/24 08:26:06;;;;;;;2.50;2.30;;;29.00;41.10;;;;;;5059157;28;20677;-76
2022/08/24 08:28:47;;;;;;;2.60;2.40;;;29.10;41.00;;;;;;5041737;28;20199;-78
2022/08/24 08:31:14;;;;;;;2.30;2.10;;;29.10;41.40;;;;;;5057930;28;20693;-76
2022/08/24 08:33:41;;;;;;;2.28;2.17;;;29.20;40.90;;;;;;5058205;28;20215;-76
2022/08/24 08:36:10;;;;;;;2.60;2.40;;;29.20;40.80;;;;;;5057031;28;20199;-76
2022/08/24 08:38:43;;;;;;;2.53;2.33;;;29.20;40.80;;;;;;5058759;28;20204;-76
2022/08/24 08:41:50;;;;;;;3.15;2.50;;;29.30;40.70;;;;;;5023529;28;20715;-76
2022/08/24 08:44:28;;;;;;;2.15;1.98;;;29.30;40.50;;;;;;5026078;28;20270;-76
2022/08/24 08:47:02;;;;;;;2.33;2.13;;;29.40;40.50;;;;;;5056421;28;20596;-75
2022/08/24 08:50:00;;;;;;;2.30;2.10;;;29.40;40.40;;;;;;5039485;28;20756;-77
2022/08/24 08:52:54;;;;;;;2.33;2.13;;;29.40;40.30;;;;;;5055973;28;20198;-77
2022/08/24 08:55:26;;;;;;;2.25;2.05;;;29.50;40.30;;;;;;5039086;28;20245;-76
2022/08/24 08:58:02;;;;;;;2.28;2.17;;;29.50;40.30;;;;;;5023892;28;20206;-76
2022/08/24 09:00:37;;;;;;;2.40;2.20;;;29.50;40.30;;;;;;5056474;28;20309;-76
2022/08/24 09:03:16;;;;;;;2.30;2.20;;;29.50;40.30;;;;;;5055974;28;20726;-76
2022/08/24 09:06:12;;;;;;;2.30;2.20;;;29.50;40.40;;;;;;5056843;28;20590;-76
2022/08/24 09:08:57;;;;;;;2.38;2.28;;;29.50;40.30;;;;;;5056369;28;20210;-76
2022/08/24 09:11:31;;;;;;;2.17;2.05;;;29.50;40.40;;;;;;5055727;28;20214;-76
2022/08/24 09:14:10;;;;;;;2.42;2.22;;;29.50;40.40;;;;;;5055608;28;20214;-76
2022/08/24 09:17:05;;;;;;;2.42;1.98;;;29.50;40.40;;;;;;5040045;28;20200;-77
2022/08/24 09:19:40;;;;;;;2.22;2.13;;;29.50;40.40;;;;;;5057148;28;20230;-76
2022/08/24 09:22:11;;;;;;;2.42;2.22;;;29.50;40.40;;;;;;5040504;28;20198;-76
2022/08/24 09:24:53;;;;;;;2.10;2.00;;;29.50;40.40;;;;;;5056421;28;20270;-77
2022/08/24 09:27:46;;;;;;;2.20;2.00;;;29.50;40.40;;;;;;5038675;28;20187;-77
2022/08/24 09:30:15;;;;;;;2.28;2.08;;;29.50;40.30;;;;;;5055576;28;20689;-77
2022/08/24 09:32:58;;;;;;;2.10;2.00;;;29.60;40.30;;;;;;5038533;28;20202;-78
2022/08/24 09:35:33;;;;;;;2.00;1.90;;;29.60;40.40;;;;;;5038264;28;20211;-75
2022/08/24 09:38:01;;;;;;;2.10;2.00;;;29.60;40.30;;;;;;5038252;28;20203;-76
2022/08/24 09:40:44;;;;;;;2.05;1.85;;;29.60;40.30;;;;;;5054734;28;20222;-76
2022/08/24 09:43:38;;;;;;;2.35;2.15;;;29.60;40.30;;;;;;5054730;28;20578;-76
2022/08/24 09:46:17;;;;;;;2.20;2.10;;;29.60;40.30;;;;;;5038254;28;20305;-77
2022/08/24 09:49:11;;;;;;;2.15;2.05;;;29.50;40.40;;;;;;5055540;28;20195;-76
2022/08/24 09:51:55;;;;;;;2.05;1.95;;;29.60;40.50;;;;;;5055661;28;20214;-76
2022/08/24 09:55:04;;;;;;;2.10;2.00;;;29.50;40.50;;;;;;5055628;28;20214;-75
2022/08/24 09:57:39;;;;;;;2.28;2.08;;;29.50;40.60;;;;;;5022586;28;20209;-76
2022/08/24 10:00:12;;;;;;;2.17;1.98;;;29.50;40.70;;;;;;5054421;28;20570;-78
2022/08/24 10:02:58;;;;;;;2.05;1.90;;;29.50;40.70;;;;;;5037905;28;20187;-77
2022/08/24 10:05:33;;;;;;;2.03;1.92;;;29.40;40.70;;;;;;5054567;28;20214;-76
2022/08/24 10:08:04;;;;;;;2.03;1.83;;;29.40;40.90;;;;;;5054282;28;20297;-77
2022/08/24 10:10:36;;;;;;;2.15;1.95;;;29.40;41.10;;;;;;5038429;28;20242;-78
2022/08/24 10:13:15;;;;;;;2.10;2.00;;;29.30;41.00;;;;;;5055323;28;20195;-77
2022/08/24 10:15:45;;;;;;;1.90;1.80;;;29.30;41.10;;;;;;5039484;28;20219;-75
2022/08/24 10:18:37;;;;;;;1.88;1.77;;;29.30;41.20;;;;;;5056086;28;20622;-77
2022/08/24 10:21:12;;;;;;;2.17;1.98;;;29.30;41.20;;;;;;5039638;28;20214;-76
2022/08/24 10:23:46;;;;;;;2.28;2.13;;;29.20;41.30;;;;;;5056775;28;20694;-76
2022/08/24 10:26:16;;;;;;;1.92;1.83;;;29.20;41.40;;;;;;5054994;28;20194;-77
2022/08/24 10:28:56;;;;;;;1.98;1.88;;;29.20;41.50;;;;;;5055238;28;20187;-77
2022/08/24 10:31:25;;;;;;;1.95;1.85;;;29.10;41.60;;;;;;5054550;28;20219;-77
2022/08/24 10:33:59;;;;;;;2.03;1.92;;;29.10;41.70;;;;;;5038121;28;20203;-76
2022/08/24 10:37:04;;;;;;;2.20;2.00;;;29.10;41.70;;;;;;5038843;28;20194;-77
2022/08/24 10:39:54;;;;;;;2.05;1.90;;;29.00;41.70;;;;;;5054134;28;20649;-76
2022/08/24 10:45:57;;;;;;;1.85;1.75;;;29.00;41.90;;;;;;5055074;28;20232;-76
2022/08/24 10:48:39;;;;;;;1.92;1.83;;;29.00;42.10;;;;;;5023185;28;20214;-76
2022/08/24 10:51:10;;;;;;;2.22;2.03;;;28.90;42.20;;;;;;5054583;28;20268;-76
2022/08/24 10:53:39;;;;;;;2.10;1.92;;;28.80;42.30;;;;;;5038514;28;20202;-77
2022/08/24 10:56:08;;;;;;;2.10;2.00;;;28.80;42.40;;;;;;5038160;28;20211;-78
2022/08/24 10:58:44;;;;;;;1.70;1.60;;;28.70;42.50;;;;;;5055843;28;20191;-77
2022/08/24 11:01:17;;;;;;;2.25;2.15;;;28.60;42.60;;;;;;5053827;28;20217;-76
2022/08/24 11:04:02;;;;;;;2.00;1.90;;;28.60;42.80;;;;;;5053986;28;20203;-76
2022/08/24 11:06:30;;;;;;;1.83;1.73;;;28.60;42.80;;;;;;5055222;28;20190;-76
2022/08/24 11:09:01;;;;;;;1.90;1.80;;;28.60;42.90;;;;;;5037113;28;20226;-77
2022/08/24 11:11:33;;;;;;;1.80;1.70;;;28.50;42.80;;;;;;5053513;28;20268;-76
2022/08/24 11:14:02;;;;;;;2.08;1.98;;;28.50;43.00;;;;;;5053476;28;20190;-76
2022/08/24 11:16:32;;;;;;;2.00;1.90;;;28.50;43.10;;;;;;5036545;28;20215;-77
2022/08/24 11:19:00;;;;;;;1.92;1.80;;;28.50;43.10;;;;;;5053330;28;20721;-76
2022/08/24 11:21:37;;;;;;;1.98;1.88;;;28.40;43.20;;;;;;5036256;28;20219;-77
2022/08/24 11:24:07;;;;;;;2.58;2.00;;;28.40;43.20;;;;;;5053962;28;20539;-78
2022/08/24 11:26:51;;;;;;;2.10;2.00;;;28.40;43.30;;;;;;5037679;28;20183;-77
2022/08/24 11:29:20;;;;;;;1.85;1.75;;;28.40;43.40;;;;;;5036602;28;20260;-77
2022/08/24 11:31:49;;;;;;;1.90;1.80;;;28.40;43.40;;;;;;5036596;28;20689;-78
2022/08/24 11:34:17;;;;;;;2.13;2.03;;;28.40;43.40;;;;;;5053049;28;20244;-77
2022/08/24 11:36:44;;;;;;;1.90;1.80;;;28.40;43.50;;;;;;5037335;28;20229;-77
2022/08/24 11:39:15;;;;;;;1.80;1.70;;;28.40;43.50;;;;;;5052713;28;20212;-77
2022/08/24 11:41:49;;;;;;;1.67;1.58;;;28.40;43.50;;;;;;5052776;28;20250;-77
2022/08/24 11:44:20;;;;;;;1.73;1.63;;;28.40;43.60;;;;;;5052803;28;20187;-77
2022/08/24 11:46:50;;;;;;;1.92;1.83;;;28.40;43.60;;;;;;5036972;28;20175;-76
2022/08/24 11:49:20;;;;;;;2.05;1.92;;;28.40;43.60;;;;;;5036042;28;20195;-77
2022/08/24 11:51:52;;;;;;;1.80;1.70;;;28.40;43.60;;;;;;5052944;28;20260;-76
2022/08/24 11:54:25;;;;;;;1.80;1.70;;;28.50;43.60;;;;;;5052677;28;20190;-76
2022/08/24 11:57:04;;;;;;;1.92;1.83;;;28.50;43.70;;;;;;5052366;28;20209;-78
2022/08/24 11:59:37;;;;;;;1.70;1.60;;;28.50;44.20;;;;;;5036818;28;20204;-76
2022/08/24 12:02:05;;;;;;;1.70;1.60;;;28.50;43.60;;;;;;5054515;28;20213;-76
2022/08/24 12:04:40;;;;;;;2.05;1.95;;;28.50;43.70;;;;;;5037397;28;20199;-77
2022/08/24 12:07:24;;;;;;;1.92;1.83;;;28.50;43.70;;;;;;5035995;28;20221;-78
2022/08/24 12:10:24;;;;;;;1.80;1.70;;;28.50;43.70;;;;;;5052459;28;20289;-77
2022/08/24 12:12:53;;;;;;;1.95;1.83;;;28.50;43.70;;;;;;5033567;28;20316;-76
2022/08/24 12:15:33;;;;;;;1.80;1.70;;;28.50;43.80;;;;;;5038492;28;20217;-76
2022/08/24 12:18:03;;;;;;;1.75;1.65;;;28.50;43.80;;;;;;5058066;28;20217;-76
2022/08/24 12:20:33;;;;;;;1.77;1.67;;;28.50;43.90;;;;;;5056966;28;20245;-76
2022/08/24 12:23:02;;;;;;;1.80;1.70;;;28.50;43.80;;;;;;5056754;28;20651;-77
2022/08/24 12:28:21;;;;;;;1.80;1.70;;;28.50;43.90;;;;;;5053052;28;20201;-77
2022/08/24 12:30:47;;;;;;;1.70;1.60;;;28.40;43.90;;;;;;5054089;28;20225;-77
2022/08/24 12:33:15;;;;;;;1.95;1.85;;;28.40;44.10;;;;;;5052737;28;20203;-76
2022/08/24 12:35:44;;;;;;;1.70;1.60;;;28.40;44.40;;;;;;5052580;28;20214;-77
2022/08/24 12:38:13;;;;;;;1.80;1.70;;;28.40;44.80;;;;;;5035712;28;20199;-77
2022/08/24 12:40:42;;;;;;;3.50;1.88;;;28.30;44.10;;;;;;5052150;28;20215;-76
2022/08/24 12:43:13;;;;;;;1.85;1.73;;;28.30;44.10;;;;;;5052727;28;20297;-77
2022/08/24 12:45:40;;;;;;;1.88;1.77;;;28.40;44.10;;;;;;5052316;28;20200;-76
2022/08/24 12:48:08;;;;;;;1.90;1.80;;;28.30;44.00;;;;;;5052224;28;20229;-76
2022/08/24 12:50:41;;;;;;;3.17;1.90;;;28.30;44.20;;;;;;5052069;28;20219;-76
2022/08/24 12:53:29;;;;;;;1.70;1.60;;;28.30;43.70;;;;;;5052131;28;20652;-76
2022/08/24 12:56:22;;;;;;;2.08;1.60;;;28.20;43.30;;;;;;5052128;28;20218;-75
2022/08/24 12:58:56;;;;;;;1.55;1.45;;;28.20;42.90;;;;;;5052470;28;20210;-77
2022/08/24 13:01:24;;;;;;;1.70;1.60;;;28.20;42.60;;;;;;5054637;28;20206;-78
2022/08/24 13:04:04;;;;;;;2.28;1.70;;;28.10;42.30;;;;;;5055624;28;20202;-77
2022/08/24 13:06:38;;;;;;;2.25;1.50;;;28.10;42.00;;;;;;5055430;28;20191;-77
2022/08/24 13:09:07;;;;;;;1.60;1.50;;;28.10;41.90;;;;;;5055508;28;20657;-77
2022/08/24 13:11:36;;;;;;;1.73;1.63;;;28.10;41.50;;;;;;5056839;28;20233;-76
2022/08/24 13:14:16;;;;;;;1.77;1.67;;;28.10;41.80;;;;;;5056879;28;20195;-77
2022/08/24 13:17:08;;;;;;;2.15;1.50;;;28.10;42.10;;;;;;5055770;28;20218;-77
2022/08/24 13:19:38;;;;;;;2.85;1.60;;;28.10;42.20;;;;;;5042050;28;20320;-78
2022/08/24 13:22:42;;;;;;;1.77;1.63;;;28.10;42.50;;;;;;5038749;28;20195;-77
2022/08/24 13:25:27;;;;;;;1.65;1.50;;;28.00;42.50;;;;;;5025854;28;20203;-76